sensor_id;sensor_type;location;lat;lon;timestamp;temperature;humidity
53645;DHT22;39547;45.554;12.068;2022-11-28T00:00:51;5.20;86.20
53645;DHT22;39547;45.554;12.068;2022-11-28T00:06:53;5.10;86.30
53645;DHT22;39547;45.554;12.068;2022-11-28T00:12:54;5.10;86.40
53645;DHT22;39547;45.554;12.068;2022-11-28T00:18:58;5.20;86.50
53645;DHT22;39547;45.554;12.068;2022-11-28T00:25:00;5.20;86.60
53645;DHT22;39547;45.554;12.068;2022-11-28T00:31:02;5.20;86.40
53645;DHT22;39547;45.554;12.068;2022-11-28T00:37:04;5.30;86.20
53645;DHT22;39547;45.554;12.068;2022-11-28T00:43:05;5.30;86.60
53645;DHT22;39547;45.554;12.068;2022-11-28T00:49:07;5.40;86.10
53645;DHT22;39547;45.554;12.068;2022-11-28T00:55:08;5.30;86.30
53645;DHT22;39547;45.554;12.068;2022-11-28T01:01:20;5.20;85.70
53645;DHT22;39547;45.554;12.068;2022-11-28T01:07:21;5.10;85.20
53645;DHT22;39547;45.554;12.068;2022-11-28T01:13:23;5.10;85.90
53645;DHT22;39547;45.554;12.068;2022-11-28T01:19:25;5.00;86.10
53645;DHT22;39547;45.554;12.068;2022-11-28T01:25:26;5.10;85.60
53645;DHT22;39547;45.554;12.068;2022-11-28T01:31:29;5.00;85.90
53645;DHT22;39547;45.554;12.068;2022-11-28T01:37:31;5.00;86.20
53645;DHT22;39547;45.554;12.068;2022-11-28T01:43:33;5.10;86.40
53645;DHT22;39547;45.554;12.068;2022-11-28T01:49:36;5.20;86.50
53645;DHT22;39547;45.554;12.068;2022-11-28T01:55:58;5.20;86.40
53645;DHT22;39547;45.554;12.068;2022-11-28T02:02:01;5.20;86.40
53645;DHT22;39547;45.554;12.068;2022-11-28T02:08:08;5.20;86.40
53645;DHT22;39547;45.554;12.068;2022-11-28T02:27:14;5.10;86.50
53645;DHT22;39547;45.554;12.068;2022-11-28T02:33:38;5.10;86.40
53645;DHT22;39547;45.554;12.068;2022-11-28T02:40:09;5.10;86.40
53645;DHT22;39547;45.554;12.068;2022-11-28T02:46:25;5.00;86.40
53645;DHT22;39547;45.554;12.068;2022-11-28T02:52:35;5.00;86.50
53645;DHT22;39547;45.554;12.068;2022-11-28T02:58:38;4.90;86.60
53645;DHT22;39547;45.554;12.068;2022-11-28T03:12:19;4.90;86.60
53645;DHT22;39547;45.554;12.068;2022-11-28T03:18:26;4.90;86.50
53645;DHT22;39547;45.554;12.068;2022-11-28T03:24:45;4.80;86.40
53645;DHT22;39547;45.554;12.068;2022-11-28T03:31:05;4.80;86.70
53645;DHT22;39547;45.554;12.068;2022-11-28T03:37:16;4.80;86.70
53645;DHT22;39547;45.554;12.068;2022-11-28T03:43:26;4.90;86.50
53645;DHT22;39547;45.554;12.068;2022-11-28T03:49:36;4.90;86.30
53645;DHT22;39547;45.554;12.068;2022-11-28T03:55:44;4.90;86.60
53645;DHT22;39547;45.554;12.068;2022-11-28T04:02:00;4.90;86.30
53645;DHT22;39547;45.554;12.068;2022-11-28T04:08:20;4.90;86.20
53645;DHT22;39547;45.554;12.068;2022-11-28T04:14:36;5.00;86.50
53645;DHT22;39547;45.554;12.068;2022-11-28T04:21:06;5.00;86.70
53645;DHT22;39547;45.554;12.068;2022-11-28T04:27:12;5.00;86.80
53645;DHT22;39547;45.554;12.068;2022-11-28T04:33:18;5.00;86.80
53645;DHT22;39547;45.554;12.068;2022-11-28T04:39:23;5.10;86.80
53645;DHT22;39547;45.554;12.068;2022-11-28T04:45:26;5.10;86.70
53645;DHT22;39547;45.554;12.068;2022-11-28T05:03:39;5.10;86.70
53645;DHT22;39547;45.554;12.068;2022-11-28T05:09:41;5.20;86.80
53645;DHT22;39547;45.554;12.068;2022-11-28T05:15:42;5.10;86.60
53645;DHT22;39547;45.554;12.068;2022-11-28T05:21:44;5.20;86.50
53645;DHT22;39547;45.554;12.068;2022-11-28T05:27:45;5.20;86.30
53645;DHT22;39547;45.554;12.068;2022-11-28T05:33:47;5.20;86.20
53645;DHT22;39547;45.554;12.068;2022-11-28T05:39:48;5.20;86.10
53645;DHT22;39547;45.554;12.068;2022-11-28T05:45:50;5.20;85.70
53645;DHT22;39547;45.554;12.068;2022-11-28T05:51:51;5.10;84.80
53645;DHT22;39547;45.554;12.068;2022-11-28T05:57:53;5.10;85.20
53645;DHT22;39547;45.554;12.068;2022-11-28T06:03:55;5.10;85.30
53645;DHT22;39547;45.554;12.068;2022-11-28T06:10:01;5.10;85.50
53645;DHT22;39547;45.554;12.068;2022-11-28T06:16:06;5.10;85.80
53645;DHT22;39547;45.554;12.068;2022-11-28T06:22:08;5.10;85.80
53645;DHT22;39547;45.554;12.068;2022-11-28T06:28:10;5.20;85.90
53645;DHT22;39547;45.554;12.068;2022-11-28T06:34:11;5.20;86.00
53645;DHT22;39547;45.554;12.068;2022-11-28T06:40:13;5.20;84.40
53645;DHT22;39547;45.554;12.068;2022-11-28T06:46:17;5.20;85.40
53645;DHT22;39547;45.554;12.068;2022-11-28T06:52:19;5.30;85.90
53645;DHT22;39547;45.554;12.068;2022-11-28T06:58:21;5.30;85.40
53645;DHT22;39547;45.554;12.068;2022-11-28T07:04:23;5.40;85.30
53645;DHT22;39547;45.554;12.068;2022-11-28T07:10:26;5.50;85.50
53645;DHT22;39547;45.554;12.068;2022-11-28T07:16:30;5.50;85.50
53645;DHT22;39547;45.554;12.068;2022-11-28T07:22:32;5.50;85.60
53645;DHT22;39547;45.554;12.068;2022-11-28T07:28:34;5.60;85.30
53645;DHT22;39547;45.554;12.068;2022-11-28T07:34:35;5.70;85.80
53645;DHT22;39547;45.554;12.068;2022-11-28T07:40:36;5.70;85.90
53645;DHT22;39547;45.554;12.068;2022-11-28T07:46:38;5.80;86.10
53645;DHT22;39547;45.554;12.068;2022-11-28T07:52:39;5.90;86.20
53645;DHT22;39547;45.554;12.068;2022-11-28T07:58:42;6.00;86.40
53645;DHT22;39547;45.554;12.068;2022-11-28T08:04:44;6.00;86.40
53645;DHT22;39547;45.554;12.068;2022-11-28T08:10:46;6.20;86.50
53645;DHT22;39547;45.554;12.068;2022-11-28T08:16:47;6.20;86.50
53645;DHT22;39547;45.554;12.068;2022-11-28T08:22:49;6.20;86.30
53645;DHT22;39547;45.554;12.068;2022-11-28T08:28:51;6.30;86.20
53645;DHT22;39547;45.554;12.068;2022-11-28T08:34:56;6.40;86.30
53645;DHT22;39547;45.554;12.068;2022-11-28T08:41:05;6.50;86.30
53645;DHT22;39547;45.554;12.068;2022-11-28T08:47:06;6.60;86.10
53645;DHT22;39547;45.554;12.068;2022-11-28T08:53:08;6.60;85.90
53645;DHT22;39547;45.554;12.068;2022-11-28T08:59:09;6.70;86.00
53645;DHT22;39547;45.554;12.068;2022-11-28T09:05:11;6.70;86.10
53645;DHT22;39547;45.554;12.068;2022-11-28T09:11:15;6.80;86.20
53645;DHT22;39547;45.554;12.068;2022-11-28T09:17:17;6.90;85.90
53645;DHT22;39547;45.554;12.068;2022-11-28T09:23:18;7.00;85.90
53645;DHT22;39547;45.554;12.068;2022-11-28T09:29:20;7.10;86.00
53645;DHT22;39547;45.554;12.068;2022-11-28T09:35:22;7.20;86.00
53645;DHT22;39547;45.554;12.068;2022-11-28T09:47:33;7.30;85.80
53645;DHT22;39547;45.554;12.068;2022-11-28T09:53:36;7.30;83.90
53645;DHT22;39547;45.554;12.068;2022-11-28T09:59:39;7.40;84.30
53645;DHT22;39547;45.554;12.068;2022-11-28T10:24:22;7.80;84.70
53645;DHT22;39547;45.554;12.068;2022-11-28T10:30:30;8.00;84.60
53645;DHT22;39547;45.554;12.068;2022-11-28T10:55:43;8.20;83.20
53645;DHT22;39547;45.554;12.068;2022-11-28T11:01:48;8.20;83.40
53645;DHT22;39547;45.554;12.068;2022-11-28T11:26:32;8.40;83.30
53645;DHT22;39547;45.554;12.068;2022-11-28T11:32:35;8.40;82.60
53645;DHT22;39547;45.554;12.068;2022-11-28T11:38:37;8.30;81.70
53645;DHT22;39547;45.554;12.068;2022-11-28T11:44:39;8.40;81.30
53645;DHT22;39547;45.554;12.068;2022-11-28T11:50:52;8.40;81.90
53645;DHT22;39547;45.554;12.068;2022-11-28T11:56:54;8.40;82.50
53645;DHT22;39547;45.554;12.068;2022-11-28T12:03:05;8.40;81.70
53645;DHT22;39547;45.554;12.068;2022-11-28T12:15:43;8.50;82.00
53645;DHT22;39547;45.554;12.068;2022-11-28T12:54:32;8.60;82.70
53645;DHT22;39547;45.554;12.068;2022-11-28T13:00:59;8.60;82.60
53645;DHT22;39547;45.554;12.068;2022-11-28T13:28:02;8.70;83.20
53645;DHT22;39547;45.554;12.068;2022-11-28T13:34:14;8.60;83.10
53645;DHT22;39547;45.554;12.068;2022-11-28T13:40:24;8.60;82.80
53645;DHT22;39547;45.554;12.068;2022-11-28T13:46:28;8.60;83.20
53645;DHT22;39547;45.554;12.068;2022-11-28T13:52:31;8.60;83.30
53645;DHT22;39547;45.554;12.068;2022-11-28T14:04:42;8.60;83.40
53645;DHT22;39547;45.554;12.068;2022-11-28T14:17:38;8.50;83.60
53645;DHT22;39547;45.554;12.068;2022-11-28T14:23:56;8.60;83.70
53645;DHT22;39547;45.554;12.068;2022-11-28T14:30:01;8.50;83.80
53645;DHT22;39547;45.554;12.068;2022-11-28T14:36:20;8.40;83.90
53645;DHT22;39547;45.554;12.068;2022-11-28T14:48:29;8.50;84.10
53645;DHT22;39547;45.554;12.068;2022-11-28T14:54:41;8.50;84.20
53645;DHT22;39547;45.554;12.068;2022-11-28T15:00:53;8.40;84.10
53645;DHT22;39547;45.554;12.068;2022-11-28T15:06:57;8.30;84.20
53645;DHT22;39547;45.554;12.068;2022-11-28T15:19:46;8.30;84.40
53645;DHT22;39547;45.554;12.068;2022-11-28T15:25:52;8.20;84.50
53645;DHT22;39547;45.554;12.068;2022-11-28T15:31:56;8.20;84.50
53645;DHT22;39547;45.554;12.068;2022-11-28T15:37:59;8.20;84.60
53645;DHT22;39547;45.554;12.068;2022-11-28T15:44:00;8.20;84.60
53645;DHT22;39547;45.554;12.068;2022-11-28T15:50:13;8.20;84.50
53645;DHT22;39547;45.554;12.068;2022-11-28T15:56:17;8.10;84.80
53645;DHT22;39547;45.554;12.068;2022-11-28T16:02:25;8.10;84.90
53645;DHT22;39547;45.554;12.068;2022-11-28T16:08:44;8.10;84.90
53645;DHT22;39547;45.554;12.068;2022-11-28T16:14:47;8.00;84.90
53645;DHT22;39547;45.554;12.068;2022-11-28T16:20:49;8.00;85.10
53645;DHT22;39547;45.554;12.068;2022-11-28T16:26:57;8.00;84.90
53645;DHT22;39547;45.554;12.068;2022-11-28T16:33:00;7.90;85.20
53645;DHT22;39547;45.554;12.068;2022-11-28T16:45:19;7.90;85.40
53645;DHT22;39547;45.554;12.068;2022-11-28T16:57:43;7.90;85.40
53645;DHT22;39547;45.554;12.068;2022-11-28T17:03:48;7.90;85.50
53645;DHT22;39547;45.554;12.068;2022-11-28T17:09:50;7.90;85.60
53645;DHT22;39547;45.554;12.068;2022-11-28T17:15:52;7.90;85.60
53645;DHT22;39547;45.554;12.068;2022-11-28T17:21:56;7.90;85.70
53645;DHT22;39547;45.554;12.068;2022-11-28T17:27:59;7.90;85.60
53645;DHT22;39547;45.554;12.068;2022-11-28T17:34:01;8.00;85.20
53645;DHT22;39547;45.554;12.068;2022-11-28T17:40:02;7.90;85.40
53645;DHT22;39547;45.554;12.068;2022-11-28T17:46:22;7.90;85.50
53645;DHT22;39547;45.554;12.068;2022-11-28T17:52:24;7.90;85.40
53645;DHT22;39547;45.554;12.068;2022-11-28T17:58:30;7.80;85.60
53645;DHT22;39547;45.554;12.068;2022-11-28T18:04:33;7.80;85.80
53645;DHT22;39547;45.554;12.068;2022-11-28T18:10:37;7.90;84.90
53645;DHT22;39547;45.554;12.068;2022-11-28T18:16:40;7.80;85.10
53645;DHT22;39547;45.554;12.068;2022-11-28T18:22:43;7.80;85.00
53645;DHT22;39547;45.554;12.068;2022-11-28T18:28:45;7.80;84.40
53645;DHT22;39547;45.554;12.068;2022-11-28T18:34:47;7.80;84.60
53645;DHT22;39547;45.554;12.068;2022-11-28T18:40:48;7.80;83.70
53645;DHT22;39547;45.554;12.068;2022-11-28T18:46:49;7.80;84.80
53645;DHT22;39547;45.554;12.068;2022-11-28T18:52:51;7.80;85.10
53645;DHT22;39547;45.554;12.068;2022-11-28T18:58:53;7.80;85.10
53645;DHT22;39547;45.554;12.068;2022-11-28T19:04:55;7.80;85.20
53645;DHT22;39547;45.554;12.068;2022-11-28T19:11:07;7.80;85.20
53645;DHT22;39547;45.554;12.068;2022-11-28T19:17:09;7.80;85.30
53645;DHT22;39547;45.554;12.068;2022-11-28T19:23:12;7.70;85.30
53645;DHT22;39547;45.554;12.068;2022-11-28T19:29:15;7.80;85.30
53645;DHT22;39547;45.554;12.068;2022-11-28T19:35:17;7.70;85.30
53645;DHT22;39547;45.554;12.068;2022-11-28T19:41:20;7.70;85.40
53645;DHT22;39547;45.554;12.068;2022-11-28T19:47:22;7.70;85.10
53645;DHT22;39547;45.554;12.068;2022-11-28T19:53:24;7.70;85.20
53645;DHT22;39547;45.554;12.068;2022-11-28T19:59:25;7.70;85.20
53645;DHT22;39547;45.554;12.068;2022-11-28T20:05:30;7.70;85.50
53645;DHT22;39547;45.554;12.068;2022-11-28T20:11:33;7.70;85.30
53645;DHT22;39547;45.554;12.068;2022-11-28T20:17:36;7.70;85.00
53645;DHT22;39547;45.554;12.068;2022-11-28T20:23:43;7.60;85.20
53645;DHT22;39547;45.554;12.068;2022-11-28T20:29:44;7.60;85.30
53645;DHT22;39547;45.554;12.068;2022-11-28T20:35:46;7.70;85.40
53645;DHT22;39547;45.554;12.068;2022-11-28T20:41:48;7.70;85.40
53645;DHT22;39547;45.554;12.068;2022-11-28T20:47:49;7.70;85.50
53645;DHT22;39547;45.554;12.068;2022-11-28T20:53:51;7.70;85.20
53645;DHT22;39547;45.554;12.068;2022-11-28T20:59:53;7.70;85.40
53645;DHT22;39547;45.554;12.068;2022-11-28T21:05:57;7.70;85.40
53645;DHT22;39547;45.554;12.068;2022-11-28T21:11:59;7.70;85.40
53645;DHT22;39547;45.554;12.068;2022-11-28T21:18:00;7.70;85.50
53645;DHT22;39547;45.554;12.068;2022-11-28T21:24:06;7.80;85.40
53645;DHT22;39547;45.554;12.068;2022-11-28T21:30:08;7.70;85.40
53645;DHT22;39547;45.554;12.068;2022-11-28T21:36:10;7.70;85.30
53645;DHT22;39547;45.554;12.068;2022-11-28T21:42:13;7.70;85.30
53645;DHT22;39547;45.554;12.068;2022-11-28T21:48:16;7.70;85.40
53645;DHT22;39547;45.554;12.068;2022-11-28T21:54:17;7.70;85.40
53645;DHT22;39547;45.554;12.068;2022-11-28T22:00:20;7.70;85.40
53645;DHT22;39547;45.554;12.068;2022-11-28T22:06:23;7.70;85.40
53645;DHT22;39547;45.554;12.068;2022-11-28T22:12:25;7.70;85.30
53645;DHT22;39547;45.554;12.068;2022-11-28T22:18:29;7.70;84.60
53645;DHT22;39547;45.554;12.068;2022-11-28T22:24:31;7.70;84.70
53645;DHT22;39547;45.554;12.068;2022-11-28T22:30:33;7.70;83.40
53645;DHT22;39547;45.554;12.068;2022-11-28T22:36:34;7.70;84.90
53645;DHT22;39547;45.554;12.068;2022-11-28T22:42:38;7.70;84.60
53645;DHT22;39547;45.554;12.068;2022-11-28T22:48:40;7.70;84.90
53645;DHT22;39547;45.554;12.068;2022-11-28T22:54:42;7.70;84.80
53645;DHT22;39547;45.554;12.068;2022-11-28T23:00:43;7.70;84.70
53645;DHT22;39547;45.554;12.068;2022-11-28T23:06:45;7.70;84.20
53645;DHT22;39547;45.554;12.068;2022-11-28T23:12:47;7.70;84.80
53645;DHT22;39547;45.554;12.068;2022-11-28T23:18:52;7.70;84.90
53645;DHT22;39547;45.554;12.068;2022-11-28T23:24:54;7.70;84.70
53645;DHT22;39547;45.554;12.068;2022-11-28T23:31:06;7.70;84.40
53645;DHT22;39547;45.554;12.068;2022-11-28T23:37:08;7.70;84.20
53645;DHT22;39547;45.554;12.068;2022-11-28T23:43:09;7.80;85.00
53645;DHT22;39547;45.554;12.068;2022-11-28T23:49:12;7.80;85.00
53645;DHT22;39547;45.554;12.068;2022-11-28T23:55:13;7.80;84.90
